Aeroporto :
LOGIN :

Iscrizione | Disclaimer

   EN    FR    IT 

 










Sommario :    VFR   VFR Marginale   IFR   IFR Intensivo   IFR Molto Intensivo
Visibilità : 
Base nubi : 
>= 8 km
>= 3000ft
5 / 8 km
1000 / 3000 ft
1500m / 5 km
500 / 1000 ft
800 / 1500m
200 / 500 ft
< 800m
< 200 ft
Simboli :   Temporali  Nebbia  Neve Forte  Precipitazioni Forti  Vento > 20 kt
SIGMETs :   Varie  Temporali  Ghiacco  Turbolenza  Onda orograficha  Ceneri Vulcaniche






- Altitudine del aeroporto : 602 ft
- Codice IATA : NVS


LFQG - Nevers

ULTIMO METAR :
  • 081000Z AUTO 15007KT 120V180 CAVOK 19/05 Q1025

METARs OBSOLETI :
  • 080930Z AUTO 13007KT 100V180 CAVOK 18/04 Q1025
  • 080900Z AUTO 13007KT 100V160 CAVOK 17/05 Q1025
  • 080830Z AUTO 12008KT CAVOK 16/04 Q1025
  • 080800Z AUTO 11008KT CAVOK 14/04 Q1025
  • 080730Z AUTO 11007KT CAVOK 13/04 Q1025

TAF N/A



MetMap, La meteo Aeronautica in un colpo d'occhio ! - Copyright ORBIFLY Dicembre 2007 - Disclaimer

ORBIFLY MET'MAP TEAM :

Programmazione e sviluppo : Alexandra Zaïnal
Concezione : Baudouin d'Aumeries
Aiuto per la programmazione : Marc-Olivier Méhu
Supporto tecnico e logistico : Manuel Goepfert
Aiuto per la traduzione : Arnaldo La Scala

Contatto : metmap@orbifly.com




FONTI E CREDITI :

   NOAA